Lagrange, Wyoming
Current Conditions -  °F | °C
As of 12:53 PM on Saturday 25 Oct 2014 (Local Time) from KTOR Reporting Station
Clear Clear  
Wind Chill: 21°   Ceiling: Unl
Heat Index: 21°   Visibility: 10mi
Dew Point:   Wind: 6mph
Humidity: 26%   Direction: 150°SSE
Pressure: 30.08"   Gusts: NA
Location:  41.63°N, 104.35°W
Report Text: KTOR 251853Z AUTO 15005KT 10SM CLR 21/01 A3008 RMK AO2 SLP157 T02110006
Loading
Personal Weather Stations






























Interactive Weather Map
Tropical Storm Tracking
New forecast layout! Learn more

10-Day Weather Forecast

Advertisements
Track Severe Weather on mobile